Time;durP1;ratioP1;P1;durP2;ratioP2;P2;SDS_P1;SDS_P2;PMS_P1;PMS_P2;Temp;Humidity;BMP_temperature;BMP_pressure;BME280_temperature;BME280_humidity;BME280_pressure;Samples;Min_cycle;Max_cycle;Signal;HPM_P1;HPM_P2
2022/06/13 00:01:32;;;;;;;2.70;1.30;;;21.00;64.40;;;21.73;nan;100838.31;4971559;28;20644;-65
2022/06/13 00:04:01;;;;;;;2.77;1.40;;;20.90;64.60;;;21.53;nan;100835.28;4972352;28;20685;-63
2022/06/13 00:06:28;;;;;;;1.63;1.53;;;20.70;65.00;;;21.46;nan;100842.31;4989555;28;20626;-64
2022/06/13 00:08:55;;;;;;;2.83;1.50;;;20.60;65.20;;;21.44;nan;100850.47;5005489;28;20690;-64
2022/06/13 00:11:24;;;;;;;3.00;1.80;;;20.70;65.60;;;21.45;nan;100841.47;4990314;28;20630;-64
2022/06/13 00:13:54;;;;;;;3.10;1.53;;;20.60;65.40;;;21.35;nan;100838.22;4970428;28;20623;-64
2022/06/13 00:16:21;;;;;;;4.60;1.40;;;20.60;65.80;;;21.35;nan;100840.88;4953768;28;20731;-64
2022/06/13 00:18:49;;;;;;;2.20;1.50;;;20.50;65.80;;;21.26;nan;100826.00;4987397;28;20677;-64
2022/06/13 00:21:26;;;;;;;4.93;1.90;;;20.50;65.90;;;21.24;nan;100835.13;4989564;28;21008;-64
2022/06/13 00:23:53;;;;;;;6.63;1.33;;;20.50;65.90;;;21.13;nan;100827.56;4990140;28;20622;-65
2022/06/13 00:26:23;;;;;;;1.90;1.40;;;20.30;66.20;;;20.99;nan;100825.63;4990319;28;20932;-64
2022/06/13 00:28:52;;;;;;;3.03;1.60;;;20.20;66.50;;;20.87;nan;100820.69;4990914;28;21256;-63
2022/06/13 00:31:19;;;;;;;4.20;1.60;;;20.10;67.00;;;20.83;nan;100834.44;4986709;28;20641;-65
2022/06/13 00:33:47;;;;;;;1.57;1.40;;;20.10;67.00;;;20.80;nan;100832.16;4988975;28;20641;-64
2022/06/13 00:36:15;;;;;;;4.13;1.60;;;20.00;67.20;;;20.73;nan;100829.34;4989251;28;20835;-64
2022/06/13 00:38:43;;;;;;;3.40;1.70;;;20.00;67.40;;;20.69;nan;100833.34;4989998;28;21077;-65
2022/06/13 00:41:17;;;;;;;3.33;1.90;;;19.90;67.50;;;20.67;nan;100831.88;4989661;28;20670;-65
2022/06/13 00:43:46;;;;;;;1.97;1.50;;;20.00;67.60;;;20.69;nan;100846.63;4990748;28;20622;-65
2022/06/13 00:46:33;;;;;;;2.00;1.77;;;19.90;67.60;;;20.56;nan;100840.16;4990064;28;20634;-65
2022/06/13 00:49:08;;;;;;;3.97;1.77;;;19.80;68.20;;;20.43;nan;100847.81;4995047;28;20649;-64
2022/06/13 00:51:43;;;;;;;4.77;1.40;;;19.70;68.80;;;20.31;nan;100851.81;4993803;28;20627;-65
2022/06/13 00:54:12;;;;;;;8.60;1.67;;;19.50;69.20;;;20.20;nan;100854.78;4992551;28;21375;-65
2022/06/13 00:56:39;;;;;;;2.27;1.40;;;19.40;69.60;;;20.17;nan;100855.13;4975058;28;20627;-65
2022/06/13 00:59:13;;;;;;;1.80;1.70;;;19.40;69.50;;;20.10;nan;100854.97;4993571;28;20719;-65
2022/06/13 01:01:41;;;;;;;2.40;1.70;;;19.30;69.70;;;20.01;nan;100867.38;4991248;28;20645;-64
2022/06/13 01:04:08;;;;;;;1.60;1.50;;;19.30;70.10;;;19.96;nan;100867.03;4991629;28;20646;-65
2022/06/13 01:06:41;;;;;;;3.97;1.97;;;19.20;70.30;;;19.90;nan;100867.69;4994229;28;20614;-65
2022/06/13 01:09:11;;;;;;;2.77;2.10;;;19.20;70.50;;;19.91;nan;100873.81;4991667;28;20673;-65
2022/06/13 01:11:47;;;;;;;2.03;1.93;;;19.20;71.30;;;19.93;nan;100875.28;4992745;28;21008;-64
2022/06/13 01:14:44;;;;;;;2.47;2.27;;;19.20;70.50;;;19.94;nan;100873.47;4991515;28;20625;-64
2022/06/13 01:17:40;;;;;;;2.40;1.60;;;19.20;70.90;;;19.95;nan;100881.25;4994776;28;20629;-64
2022/06/13 01:20:36;;;;;;;4.00;1.90;;;19.30;70.60;;;20.01;nan;100877.97;4993583;28;20626;-64
2022/06/13 01:23:37;;;;;;;1.80;1.70;;;19.30;70.40;;;20.01;nan;100887.72;4993175;28;20643;-65
2022/06/13 01:26:22;;;;;;;2.40;1.77;;;19.20;70.70;;;19.91;nan;100887.88;4992575;28;20637;-64
2022/06/13 01:28:55;;;;;;;3.10;1.90;;;19.20;70.80;;;19.84;nan;100876.31;4992448;28;21245;-65
2022/06/13 01:31:28;;;;;;;6.07;1.90;;;19.10;70.80;;;19.89;nan;100878.47;4992467;28;20645;-65
2022/06/13 01:34:24;;;;;;;3.27;2.00;;;19.20;71.20;;;19.84;nan;100870.16;4986304;28;20643;-65
2022/06/13 01:37:34;;;;;;;2.87;1.97;;;19.10;71.50;;;19.76;nan;100872.81;4973332;28;20631;-64
2022/06/13 01:40:04;;;;;;;6.63;1.93;;;19.10;71.90;;;19.77;nan;100870.00;4986310;28;20637;-64
2022/06/13 01:42:55;;;;;;;6.07;2.13;;;19.00;72.40;;;19.67;nan;100877.25;4992865;28;21501;-65
2022/06/13 01:45:44;;;;;;;2.03;1.80;;;19.00;73.00;;;19.69;nan;100883.22;4992623;28;20653;-64
2022/06/13 01:49:06;;;;;;;2.77;1.80;;;19.00;73.20;;;19.70;nan;100884.88;4991839;28;20662;-63
2022/06/13 01:52:00;;;;;;;1.97;1.77;;;19.00;73.90;;;19.62;nan;100887.50;4992075;28;20641;-64
2022/06/13 01:54:50;;;;;;;6.33;1.93;;;18.90;74.30;;;19.54;nan;100892.78;4993877;28;20970;-65
2022/06/13 01:57:33;;;;;;;2.13;2.03;;;18.80;74.80;;;19.55;nan;100890.97;4990725;28;20614;-65
2022/06/13 02:00:31;;;;;;;4.10;1.77;;;18.80;75.30;;;19.52;nan;100889.47;4990713;28;20629;-64
2022/06/13 02:03:20;;;;;;;3.23;1.80;;;18.80;75.60;;;19.46;nan;100894.56;4991195;28;20618;-65
2022/06/13 02:06:02;;;;;;;2.20;2.10;;;18.80;75.90;;;19.50;nan;100895.91;4980940;28;20642;-63
2022/06/13 02:08:37;;;;;;;6.20;2.00;;;18.80;76.20;;;19.44;nan;100886.81;4991910;28;21019;-64
2022/06/13 02:11:18;;;;;;;2.47;1.97;;;18.80;76.70;;;19.49;nan;100892.44;4991693;28;21192;-64
2022/06/13 02:14:16;;;;;;;3.97;2.13;;;18.80;77.00;;;19.43;nan;100906.31;4991960;28;20990;-64
2022/06/13 02:16:52;;;;;;;2.27;1.77;;;18.80;77.40;;;19.39;nan;100891.75;4990078;28;20650;-65
2022/06/13 02:19:26;;;;;;;2.17;1.83;;;18.70;78.00;;;19.30;nan;100896.16;4990205;28;20677;-64
2022/06/13 02:22:01;;;;;;;4.20;2.20;;;18.60;78.80;;;19.27;nan;100893.00;4993041;28;20622;-64
2022/06/13 02:24:35;;;;;;;2.33;2.13;;;18.60;79.30;;;19.25;nan;100893.13;4991825;28;20633;-64
2022/06/13 02:27:06;;;;;;;4.87;2.10;;;18.50;80.00;;;19.22;nan;100890.84;5008432;28;20629;-64
2022/06/13 02:29:52;;;;;;;3.47;2.00;;;18.50;80.50;;;19.20;nan;100882.22;4993077;28;20733;-65
2022/06/13 02:32:39;;;;;;;3.00;2.10;;;18.50;81.00;;;19.23;nan;100891.63;4990566;28;20646;-63
2022/06/13 02:35:22;;;;;;;2.30;2.10;;;18.50;81.80;;;19.16;nan;100885.34;4988791;28;20618;-64
2022/06/13 02:38:03;;;;;;;6.73;2.30;;;18.50;81.90;;;19.09;nan;100887.78;4991104;28;20739;-65
2022/06/13 02:40:44;;;;;;;2.00;1.90;;;18.40;82.60;;;19.04;nan;100890.06;4991039;28;20617;-65
2022/06/13 02:43:23;;;;;;;4.60;2.10;;;18.30;83.30;;;18.94;nan;100885.91;4989949;28;20638;-65
2022/06/13 02:46:00;;;;;;;2.07;1.87;;;18.30;84.10;;;18.91;nan;100888.88;4991064;28;20622;-64
2022/06/13 02:48:49;;;;;;;4.37;2.30;;;18.20;84.90;;;18.83;nan;100886.16;4990564;28;20653;-65
2022/06/13 02:51:57;;;;;;;2.00;1.87;;;18.20;85.80;;;18.79;nan;100895.38;4989652;28;21011;-64
2022/06/13 02:54:49;;;;;;;3.27;2.07;;;18.10;86.90;;;18.78;nan;100891.09;4987960;28;20634;-63
2022/06/13 02:57:35;;;;;;;2.17;1.87;;;18.10;87.60;;;18.73;nan;100890.72;4987214;28;20660;-63
2022/06/13 03:00:22;;;;;;;2.40;1.60;;;18.00;88.70;;;18.54;nan;100883.84;4990716;28;21018;-63
2022/06/13 03:03:12;;;;;;;2.13;1.80;;;17.80;90.00;;;18.44;nan;100889.22;4990080;28;20657;-63
2022/06/13 03:05:50;;;;;;;2.30;1.90;;;17.70;90.70;;;18.43;nan;100876.16;4983662;28;21035;-63
2022/06/13 03:08:48;;;;;;;2.53;2.00;;;17.70;91.40;;;18.23;nan;100877.34;4991895;28;20647;-64
2022/06/13 03:11:30;;;;;;;2.47;2.10;;;17.50;92.30;;;18.18;nan;100883.06;4990132;28;20618;-64
2022/06/13 03:14:19;;;;;;;3.23;2.10;;;17.50;93.00;;;18.08;nan;100889.41;4990498;28;20769;-63
2022/06/13 03:17:05;;;;;;;1.97;1.77;;;17.40;93.90;;;17.94;nan;100897.84;4991842;28;21252;-64
2022/06/13 03:20:08;;;;;;;3.13;1.70;;;17.30;94.80;;;17.88;nan;100901.09;4989401;28;20736;-64
2022/06/13 03:23:08;;;;;;;2.10;1.70;;;17.20;95.70;;;17.97;nan;100895.75;4990298;28;20628;-64
2022/06/13 03:25:51;;;;;;;3.57;1.90;;;17.30;96.30;;;17.92;nan;100902.47;4990956;28;20622;-63
2022/06/13 03:28:33;;;;;;;3.13;2.10;;;17.20;96.80;;;17.93;nan;100909.41;5002419;28;20681;-64
2022/06/13 03:31:18;;;;;;;2.37;2.13;;;17.20;97.40;;;17.93;nan;100910.22;4991106;28;20629;-63
2022/06/13 03:33:50;;;;;;;2.67;1.97;;;17.20;97.80;;;18.07;nan;100922.06;4977870;28;20713;-64
2022/06/13 03:36:29;;;;;;;2.63;2.20;;;17.40;97.90;;;18.01;nan;100920.88;4989718;28;20642;-65
2022/06/13 03:39:12;;;;;;;2.57;2.00;;;17.40;98.30;;;18.02;nan;100922.53;4988663;28;20673;-64
2022/06/13 03:41:48;;;;;;;3.00;2.17;;;17.30;98.40;;;18.05;nan;100922.22;4989720;28;21174;-63
2022/06/13 03:44:37;;;;;;;4.03;2.00;;;17.40;98.60;;;18.05;nan;100927.50;4989042;28;21014;-63
2022/06/13 03:47:34;;;;;;;3.30;2.60;;;17.40;98.70;;;18.06;nan;100939.72;4990173;28;20614;-64
2022/06/13 03:50:16;;;;;;;2.60;2.10;;;17.40;99.10;;;18.18;nan;100945.63;4984335;28;20650;-63
2022/06/13 03:52:51;;;;;;;2.87;2.30;;;17.50;98.90;;;18.17;nan;100942.13;4989777;28;21189;-64
2022/06/13 03:55:31;;;;;;;3.93;1.73;;;17.50;99.10;;;18.19;nan;100955.19;4987372;28;20633;-63
2022/06/13 03:58:12;;;;;;;3.87;1.80;;;17.50;99.10;;;18.23;nan;100946.00;4987042;28;20680;-63
2022/06/13 04:00:57;;;;;;;6.50;2.40;;;17.60;99.00;;;18.29;nan;100956.75;4987711;28;20638;-63
2022/06/13 04:03:26;;;;;;;2.30;2.20;;;17.70;98.90;;;18.32;nan;100958.28;4989258;28;20634;-63
2022/06/13 04:05:59;;;;;;;2.30;2.20;;;17.70;98.90;;;18.36;nan;100951.69;4989942;28;20641;-65
2022/06/13 04:08:31;;;;;;;4.13;2.53;;;17.70;98.80;;;18.42;nan;100957.22;4989923;28;20649;-64
2022/06/13 04:11:23;;;;;;;4.30;2.43;;;17.80;98.60;;;18.40;nan;100958.34;4988373;28;20646;-65
2022/06/13 04:14:47;;;;;;;2.23;2.03;;;17.80;98.70;;;18.49;nan;100965.38;4984983;28;20645;-65
2022/06/13 04:17:33;;;;;;;3.53;2.20;;;17.80;98.40;;;18.69;nan;100966.88;4969440;28;20999;-65
2022/06/13 04:20:18;;;;;;;2.40;2.20;;;18.10;97.90;;;18.92;nan;100965.38;4977652;28;20674;-64
2022/06/13 04:22:49;;;;;;;2.27;2.10;;;18.30;97.30;;;19.11;nan;100966.97;4989846;28;21224;-65
2022/06/13 04:25:30;;;;;;;5.50;1.93;;;18.60;96.70;;;19.30;nan;100974.69;5004787;28;20634;-64
2022/06/13 04:28:19;;;;;;;2.30;2.20;;;18.70;95.90;;;19.36;nan;100974.06;5001114;28;20663;-64
2022/06/13 04:30:49;;;;;;;2.03;1.90;;;18.80;95.50;;;19.53;nan;100967.06;4988540;28;20639;-65
2022/06/13 04:33:40;;;;;;;2.47;2.27;;;19.00;95.20;;;19.64;nan;100972.03;4988406;28;20631;-65
2022/06/13 04:36:13;;;;;;;2.70;2.50;;;19.10;94.80;;;19.72;nan;100970.25;4979041;28;20722;-65
2022/06/13 04:38:53;;;;;;;3.00;1.90;;;19.20;94.40;;;19.94;nan;100977.59;5059218;23;20971;-61
2022/06/13 04:41:26;;;;;;;4.20;2.43;;;19.40;94.00;;;20.06;nan;100978.94;5010158;28;20635;-64
2022/06/13 04:43:59;;;;;;;3.13;2.27;;;19.50;93.60;;;20.23;nan;100979.81;5009314;28;20613;-65
2022/06/13 04:46:28;;;;;;;2.43;2.23;;;19.70;93.20;;;20.48;nan;100989.47;5010180;28;21173;-67
2022/06/13 04:48:59;;;;;;;3.53;1.97;;;20.00;92.70;;;20.56;nan;100986.81;4990445;28;20675;-64
2022/06/13 04:51:38;;;;;;;1.97;1.87;;;20.10;92.20;;;20.72;nan;100986.00;4969636;28;20646;-65
2022/06/13 04:54:22;;;;;;;2.40;2.20;;;20.20;91.90;;;20.96;nan;100977.97;4952643;28;20670;-66
2022/06/13 04:56:50;;;;;;;2.17;1.97;;;20.50;91.40;;;21.00;nan;100989.91;4968139;28;20620;-65
2022/06/13 04:59:17;;;;;;;2.10;2.00;;;20.60;90.90;;;21.10;nan;100989.75;4955867;28;20686;-63
2022/06/13 05:01:48;;;;;;;5.30;2.23;;;20.60;90.80;;;21.36;nan;100995.69;4969383;28;20670;-66
2022/06/13 05:04:24;;;;;;;7.83;2.60;;;20.90;90.60;;;21.68;nan;100992.88;4970132;28;21176;-63
2022/06/13 05:06:58;;;;;;;3.53;2.10;;;21.20;89.30;;;21.75;nan;101000.97;4970510;28;20583;-65
2022/06/13 05:09:31;;;;;;;5.23;2.63;;;21.30;88.10;;;21.52;nan;101008.88;4971779;28;20666;-63
2022/06/13 05:12:25;;;;;;;2.67;2.47;;;21.00;88.20;;;21.49;nan;101007.38;4971471;28;20677;-63
2022/06/13 05:15:15;;;;;;;4.90;2.50;;;21.00;88.50;;;21.53;nan;101008.69;4991832;28;20626;-63
2022/06/13 05:18:18;;;;;;;2.40;2.00;;;21.00;88.50;;;21.86;nan;101017.41;4970572;28;21222;-65
2022/06/13 05:20:57;;;;;;;2.97;2.23;;;21.30;87.50;;;22.27;nan;101018.81;4977789;28;20766;-63
2022/06/13 05:23:52;;;;;;;4.70;2.60;;;21.80;86.10;;;22.66;nan;101028.53;4990602;28;20621;-63
2022/06/13 05:26:21;;;;;;;5.90;2.27;;;22.20;84.30;;;22.92;nan;101026.28;4991541;28;21169;-63
2022/06/13 05:28:47;;;;;;;2.40;2.27;;;22.50;83.10;;;23.11;nan;101029.28;4990536;28;20718;-63
2022/06/13 05:31:18;;;;;;;3.00;2.27;;;22.70;81.30;;;23.23;nan;101027.00;4970274;28;20646;-63
2022/06/13 05:33:48;;;;;;;2.73;2.00;;;22.90;80.40;;;23.34;nan;101033.75;4981107;28;21206;-64
2022/06/13 05:36:19;;;;;;;7.00;2.90;;;22.90;80.00;;;23.32;nan;101030.41;4986790;28;20645;-64
2022/06/13 05:38:50;;;;;;;4.20;2.20;;;22.80;79.50;;;23.50;nan;101028.22;4992537;28;21249;-64
2022/06/13 05:41:18;;;;;;;4.70;2.23;;;23.00;78.50;;;23.83;nan;101026.78;4976913;28;20762;-63
2022/06/13 05:43:45;;;;;;;3.20;2.30;;;23.30;77.60;;;24.13;nan;101039.06;4973884;28;20639;-65
2022/06/13 05:46:26;;;;;;;3.17;2.40;;;23.70;76.40;;;24.34;nan;101036.44;4974867;28;20627;-62
2022/06/13 05:48:53;;;;;;;4.20;2.13;;;23.90;75.00;;;24.66;nan;101043.09;4973719;28;20645;-62
2022/06/13 05:51:20;;;;;;;1.90;1.80;;;24.20;73.70;;;24.87;nan;101045.81;4988353;28;20639;-62
2022/06/13 05:53:48;;;;;;;4.60;1.83;;;24.40;72.40;;;25.20;nan;101041.53;4994878;28;20635;-63
2022/06/13 05:56:18;;;;;;;3.67;1.93;;;24.80;71.40;;;25.54;nan;101039.91;4985101;28;20643;-62
2022/06/13 05:58:45;;;;;;;4.63;2.30;;;25.20;70.30;;;25.94;nan;101050.59;4973538;28;21022;-64
2022/06/13 06:01:16;;;;;;;3.03;2.07;;;25.60;69.40;;;26.26;nan;101054.41;4974355;28;21182;-63
2022/06/13 06:03:45;;;;;;;4.70;2.03;;;25.90;68.40;;;26.59;nan;101049.97;4975104;28;20607;-64
2022/06/13 06:06:21;;;;;;;2.73;2.47;;;26.30;66.90;;;;;;4975778;28;20635;-62
2022/06/13 06:08:49;;;;;;;2.30;1.80;;;26.40;65.20;;;;;;4973040;28;20681;-63
2022/06/13 06:11:17;;;;;;;3.93;2.00;;;26.40;65.00;;;;;;4991505;28;20648;-64
2022/06/13 06:13:43;;;;;;;3.53;2.60;;;26.20;63.80;;;;;;4993154;28;20652;-64
2022/06/13 06:16:14;;;;;;;3.53;2.10;;;25.70;64.30;;;;;;4975261;28;20645;-63
2022/06/13 06:18:41;;;;;;;2.33;2.10;;;25.70;64.90;;;26.43;nan;101055.69;4973238;28;20675;-65
2022/06/13 06:21:09;;;;;;;2.47;2.20;;;26.30;64.00;;;27.21;nan;101056.78;4989202;28;20642;-63
2022/06/13 06:23:36;;;;;;;3.47;3.27;;;26.90;62.20;;;27.95;nan;101063.41;4994386;28;20606;-64
2022/06/13 06:26:06;;;;;;;3.40;2.17;;;27.50;61.60;;;28.06;nan;101059.25;4993580;28;20641;-66
2022/06/13 06:28:34;;;;;;;4.10;2.07;;;27.60;59.70;;;28.36;nan;101063.03;4985858;28;20678;-63
2022/06/13 06:31:03;;;;;;;4.93;2.70;;;27.80;59.30;;;28.74;nan;101058.44;4971313;28;21272;-64
2022/06/13 06:33:32;;;;;;;3.93;2.20;;;28.50;58.40;;;29.38;nan;101059.97;4980775;28;20635;-64
2022/06/13 06:35:59;;;;;;;2.77;2.10;;;28.90;56.40;;;30.52;nan;101064.34;4976666;28;20639;-64
2022/06/13 06:38:27;;;;;;;3.17;1.67;;;30.10;55.20;;;31.61;nan;101073.69;4971910;28;20675;-64
2022/06/13 06:40:54;;;;;;;8.60;2.50;;;31.20;53.10;;;32.06;nan;101069.28;4971500;28;20627;-63
2022/06/13 06:43:21;;;;;;;1.90;1.80;;;31.70;51.60;;;32.62;nan;101071.16;4975116;28;20622;-65
2022/06/13 06:45:48;;;;;;;2.13;2.00;;;32.20;50.00;;;33.29;nan;101080.88;4971915;28;20626;-64
2022/06/13 06:48:19;;;;;;;2.00;1.90;;;32.90;48.20;;;33.84;nan;101085.44;4975817;28;20662;-64
2022/06/13 06:50:49;;;;;;;5.30;2.60;;;33.40;48.00;;;33.33;nan;101089.34;4974019;28;20647;-64
2022/06/13 06:53:23;;;;;;;2.63;2.43;;;33.20;46.80;;;33.67;nan;101084.69;4971198;28;20977;-64
2022/06/13 07:01:25;;;;;;;1.67;1.67;;;35.10;45.10;;;36.97;nan;101089.84;4985196;28;20618;-64
2022/06/13 07:03:52;;;;;;;2.00;1.90;;;36.20;43.80;;;38.07;nan;101098.84;4990600;28;21325;-65
2022/06/13 07:06:19;;;;;;;2.97;2.57;;;37.30;42.60;;;38.83;nan;101085.53;4990876;28;20635;-62
2022/06/13 07:08:46;;;;;;;3.23;2.30;;;38.00;41.50;;;39.25;nan;101085.69;4971459;28;20663;-65
2022/06/13 07:14:20;;;;;;;2.07;1.97;;;38.50;39.70;;;39.67;nan;101084.97;4976984;28;20634;-63
2022/06/13 07:16:47;;;;;;;1.93;1.83;;;38.90;39.60;;;40.22;nan;101091.59;4973092;28;21214;-65
2022/06/13 07:19:14;;;;;;;2.17;2.07;;;39.40;38.80;;;39.54;nan;101091.91;4974728;28;20738;-66
2022/06/13 07:21:41;;;;;;;2.47;2.00;;;39.40;38.70;;;40.54;nan;101096.34;4969820;28;20640;-66
2022/06/13 07:24:08;;;;;;;3.80;2.00;;;39.70;37.90;;;41.46;nan;101099.94;4967194;28;20636;-65
2022/06/13 07:26:36;;;;;;;4.17;1.70;;;40.60;37.50;;;42.10;nan;101102.44;4970977;28;21511;-64
2022/06/13 07:29:04;;;;;;;2.50;2.30;;;41.40;37.50;;;41.45;nan;101090.91;4963408;28;20663;-62
2022/06/13 07:32:00;;;;;;;3.67;2.13;;;40.90;36.40;;;39.66;nan;101093.41;4966745;28;20654;-64
2022/06/13 07:34:31;;;;;;;2.70;1.80;;;39.60;36.90;;;40.35;nan;101093.59;4966200;28;20639;-65
2022/06/13 07:37:01;;;;;;;2.30;2.10;;;39.90;36.80;;;40.31;nan;101098.03;4971422;28;20627;-64
2022/06/13 07:39:28;;;;;;;1.93;1.83;;;39.50;37.00;;;41.71;nan;101091.22;4970160;28;20686;-64
2022/06/13 07:41:55;;;;;;;2.33;1.97;;;40.80;36.50;;;42.93;nan;101090.84;4951528;28;21266;-66
2022/06/13 07:44:28;;;;;;;2.80;2.00;;;42.10;35.60;;;43.92;nan;101090.25;4955175;28;21225;-65
2022/06/13 07:46:56;;;;;;;2.20;2.10;;;43.10;34.90;;;42.90;nan;101093.41;4965238;28;20619;-65
2022/06/13 07:49:23;;;;;;;1.77;1.67;;;42.80;34.30;;;43.54;nan;101089.16;4964069;28;20666;-66
2022/06/13 07:51:50;;;;;;;5.47;2.10;;;42.80;34.60;;;44.24;nan;101083.50;4969419;28;20632;-65
2022/06/13 07:54:18;;;;;;;1.80;1.70;;;43.60;34.00;;;42.73;nan;101079.53;4973286;28;20631;-67
2022/06/13 07:56:45;;;;;;;2.17;2.07;;;42.50;33.90;;;43.13;nan;101092.22;4993253;28;20642;-67
2022/06/13 07:59:27;;;;;;;1.63;1.53;;;42.40;34.10;;;43.78;nan;101095.91;4967018;28;20675;-66
2022/06/13 08:01:57;;;;;;;4.63;1.50;;;43.20;34.50;;;44.57;nan;101088.22;4957974;28;20630;-67
2022/06/13 08:04:24;;;;;;;1.40;1.30;;;43.80;33.60;;;45.43;nan;101092.66;4980611;28;21215;-66
2022/06/13 08:07:16;;;;;;;1.83;1.60;;;44.60;33.10;;;46.23;nan;101100.59;4953543;28;20612;-65
2022/06/13 08:09:43;;;;;;;1.90;1.57;;;45.50;32.50;;;46.57;nan;101103.06;4959051;28;20757;-66
2022/06/13 08:12:15;;;;;;;1.80;1.37;;;45.90;31.60;;;46.96;nan;101095.34;4973502;28;20622;-65
2022/06/13 08:14:45;;;;;;;1.37;1.27;;;46.30;31.00;;;47.18;nan;101100.44;4970937;28;20632;-66
2022/06/13 08:17:16;;;;;;;1.40;1.30;;;46.60;30.80;;;47.18;nan;101105.97;4972117;28;20619;-64
2022/06/13 08:19:43;;;;;;;1.37;1.37;;;46.70;29.90;;;47.10;nan;101093.09;4969051;28;20678;-66
2022/06/13 08:22:10;;;;;;;1.93;1.83;;;46.40;30.00;;;47.22;nan;101104.16;4970815;28;20627;-65
2022/06/13 08:24:37;;;;;;;1.43;1.43;;;46.50;30.00;;;47.19;nan;101102.06;4971454;28;20627;-65
2022/06/13 08:27:05;;;;;;;3.60;1.33;;;46.60;30.00;;;47.56;nan;101100.94;4984755;28;20645;-65
2022/06/13 08:29:32;;;;;;;1.93;1.40;;;46.90;29.80;;;47.23;nan;101100.22;4990608;28;20650;-65
2022/06/13 08:32:01;;;;;;;1.50;1.43;;;46.70;29.60;;;47.09;nan;101103.31;4975074;28;20635;-64
2022/06/13 08:34:29;;;;;;;1.87;1.83;;;46.30;29.70;;;47.00;nan;101099.03;4972370;28;20643;-65
2022/06/13 08:36:56;;;;;;;10.90;9.87;;;46.10;29.90;;;47.76;nan;101099.22;4962948;28;20634;-65
2022/06/13 08:39:24;;;;;;;5.90;5.50;;;46.90;29.80;;;48.29;nan;101101.63;4965770;28;20678;-65
2022/06/13 08:41:54;;;;;;;1.50;1.50;;;47.50;29.70;;;48.94;nan;101092.75;4959718;28;20628;-69
2022/06/13 08:44:51;;;;;;;1.60;1.50;;;48.10;29.50;;;48.51;nan;101103.06;4966094;28;20635;-67
2022/06/13 08:47:23;;;;;;;1.20;1.20;;;48.70;29.20;;;48.40;nan;101104.69;4950547;29;20625;-65
2022/06/13 08:50:28;;;;;;;1.50;1.40;;;47.90;28.90;;;48.99;nan;101111.09;4956159;28;20675;-65
2022/06/13 08:53:01;;;;;;;1.87;1.70;;;48.20;28.90;;;48.43;nan;101101.22;4968145;28;21008;-64
2022/06/13 08:55:53;;;;;;;2.03;1.93;;;47.90;29.10;;;48.32;nan;101100.13;4969496;28;20637;-65
2022/06/13 08:58:31;;;;;;;2.63;1.70;;;47.70;28.90;;;46.92;nan;101111.78;4967709;28;20666;-65
2022/06/13 09:01:12;;;;;;;3.03;2.40;;;46.50;28.70;;;45.65;nan;101103.41;4970373;28;20667;-64
2022/06/13 09:03:56;;;;;;;1.50;1.50;;;45.50;29.30;;;46.37;nan;101114.94;4971452;28;20639;-66
2022/06/13 09:07:05;;;;;;;1.40;1.40;;;45.70;29.40;;;47.36;nan;101112.91;4967236;28;20680;-64
2022/06/13 09:10:19;;;;;;;1.50;1.40;;;46.60;29.20;;;46.71;nan;101108.28;4952538;28;20667;-64
2022/06/13 09:13:46;;;;;;;1.63;1.53;;;46.10;28.90;;;43.39;nan;101104.16;4989155;28;20642;-65
2022/06/13 09:16:22;;;;;;;1.33;1.33;;;44.00;29.00;;;45.50;nan;101117.72;4969090;28;21218;-64
2022/06/13 09:18:58;;;;;;;1.63;1.27;;;44.70;29.60;;;47.52;nan;101119.38;4983271;28;21296;-65
2022/06/13 09:22:12;;;;;;;1.53;1.43;;;46.70;29.20;;;47.72;nan;101118.44;4971429;28;20642;-65
2022/06/13 09:24:49;;;;;;;2.30;1.80;;;47.50;28.70;;;48.65;nan;101115.31;4973926;28;20627;-66
2022/06/13 09:27:34;;;;;;;1.63;1.53;;;48.10;28.70;;;49.72;nan;101120.47;4972211;28;20622;-66
2022/06/13 09:30:12;;;;;;;1.47;1.30;;;48.90;28.40;;;50.31;nan;101127.69;4967252;28;20663;-65
2022/06/13 09:32:53;;;;;;;2.00;1.90;;;49.70;27.90;;;47.25;nan;101118.09;4989056;28;20653;-64
2022/06/13 09:35:24;;;;;;;2.77;1.80;;;47.40;28.10;;;48.01;nan;101109.88;4982342;28;20643;-67
2022/06/13 09:38:13;;;;;;;1.97;1.73;;;47.70;28.70;;;46.36;nan;101115.28;4947068;28;21016;-64
2022/06/13 09:40:59;;;;;;;5.73;5.23;;;46.20;28.80;;;47.97;nan;101114.50;4967259;28;20675;-67
2022/06/13 09:44:13;;;;;;;2.23;2.00;;;47.10;29.30;;;47.55;nan;101119.50;4960759;28;20628;-65
2022/06/13 09:47:15;;;;;;;1.50;1.50;;;47.00;28.90;;;45.91;nan;101117.84;4936277;29;20654;-65
2022/06/13 09:49:47;;;;;;;1.63;1.53;;;45.60;28.90;;;44.81;nan;101111.66;4960426;28;21437;-64
2022/06/13 09:52:57;;;;;;;2.13;1.57;;;44.30;29.40;;;42.03;nan;101112.16;4973817;28;20642;-65
2022/06/13 09:55:41;;;;;;;3.90;2.20;;;41.60;29.90;;;41.14;nan;101105.44;4950152;28;20657;-65
2022/06/13 09:58:37;;;;;;;2.10;1.70;;;40.80;30.40;;;42.74;nan;101109.44;4981571;28;20662;-64
2022/06/13 10:01:26;;;;;;;1.70;1.60;;;41.80;30.50;;;44.05;nan;101113.25;4979331;28;21244;-65
2022/06/13 10:04:12;;;;;;;1.50;1.50;;;43.70;29.80;;;43.93;nan;101106.44;4991700;28;20602;-65
2022/06/13 10:07:19;;;;;;;1.93;1.83;;;43.40;29.80;;;38.80;nan;101100.53;4972332;28;21060;-65
2022/06/13 10:10:08;;;;;;;1.80;1.70;;;39.50;30.80;;;36.72;nan;101098.00;4971544;28;21238;-64
2022/06/13 10:13:14;;;;;;;2.00;1.80;;;36.50;32.50;;;35.50;nan;101100.59;4954468;29;20620;-64
2022/06/13 10:16:04;;;;;;;2.87;1.70;;;34.70;33.50;;;35.48;nan;101091.91;4954281;28;20624;-64
2022/06/13 10:18:53;;;;;;;2.20;1.60;;;35.10;33.30;;;33.30;nan;101093.34;4955125;29;20723;-64
2022/06/13 10:21:46;;;;;;;1.90;1.77;;;33.00;34.40;;;32.70;nan;101089.66;4973565;28;21253;-63
2022/06/13 10:24:34;;;;;;;2.93;1.80;;;32.00;34.60;;;32.12;nan;101089.91;4967950;28;20627;-67
2022/06/13 10:27:30;;;;;;;2.50;1.40;;;31.40;35.30;;;;;;4973783;28;20627;-64
2022/06/13 10:30:23;;;;;;;3.23;1.80;;;31.50;35.10;;;;;;4951853;28;20742;-66
2022/06/13 10:33:09;;;;;;;1.90;1.63;;;30.00;36.00;;;;;;4974425;28;20639;-64
2022/06/13 10:35:57;;;;;;;6.00;2.03;;;29.30;36.80;;;;;;4972082;28;20742;-65
2022/06/13 10:39:05;;;;;;;1.30;1.30;;;28.90;37.20;;;;;;4994016;22;20650;-63
2022/06/13 10:41:37;;;;;;;1.70;1.60;;;29.00;37.40;;;;;;4990215;28;20757;-64
2022/06/13 10:44:08;;;;;;;3.17;2.10;;;28.50;38.70;;;;;;4961783;28;21199;-64
2022/06/13 10:46:35;;;;;;;1.90;1.80;;;27.70;39.80;;;;;;4961480;28;21169;-64
2022/06/13 10:49:20;;;;;;;4.50;1.80;;;27.00;40.20;;;;;;4971758;28;20643;-66
2022/06/13 10:51:47;;;;;;;2.60;1.50;;;26.30;41.60;;;;;;4958785;28;20672;-65
2022/06/13 10:54:21;;;;;;;9.60;2.20;;;26.60;41.50;;;;;;4952712;28;20718;-64
2022/06/13 10:56:50;;;;;;;1.67;1.50;;;27.10;41.00;;;;;;4958618;28;20697;-67
2022/06/13 10:59:30;;;;;;;2.70;1.67;;;27.50;40.80;;;;;;4963740;28;20663;-67
2022/06/13 11:02:00;;;;;;;3.17;1.57;;;27.60;40.40;;;;;;4966805;28;21194;-64
2022/06/13 11:04:33;;;;;;;3.83;2.00;;;27.60;40.30;;;;;;4972106;28;20615;-65
2022/06/13 11:07:11;;;;;;;1.70;1.13;;;27.40;40.90;;;;;;4961441;28;20646;-68
2022/06/13 11:09:38;;;;;;;1.60;1.50;;;27.50;41.00;;;;;;4958085;28;20744;-66
2022/06/13 11:12:14;;;;;;;1.40;1.30;;;27.40;40.80;;;;;;4945322;28;20994;-64
2022/06/13 11:23:21;;;;;;;3.03;1.53;;;27.80;41.50;;;;;;4952511;29;20703;-67
2022/06/13 11:25:56;;;;;;;1.40;1.30;;;27.60;41.60;;;;;;4949371;28;20695;-65
2022/06/13 11:28:27;;;;;;;1.63;1.50;;;27.40;41.30;;;;;;4964518;28;20611;-66
2022/06/13 11:31:26;;;;;;;2.10;2.00;;;27.30;41.10;;;;;;4966375;28;20627;-65
2022/06/13 11:33:53;;;;;;;1.63;1.43;;;27.60;40.50;;;;;;4943580;28;21084;-64
2022/06/13 11:36:26;;;;;;;5.10;1.40;;;27.70;40.40;;;;;;4950571;28;20651;-70
2022/06/13 11:39:01;;;;;;;3.13;2.10;;;27.80;40.10;;;;;;4958819;28;20662;-65
2022/06/13 11:41:41;;;;;;;1.70;1.60;;;27.70;39.20;;;;;;4971366;28;20749;-65
2022/06/13 11:44:20;;;;;;;1.90;1.70;;;27.80;39.50;;;;;;4972453;28;20621;-65
2022/06/13 11:46:53;;;;;;;3.07;1.60;;;27.50;39.50;;;;;;4965403;28;21272;-64
2022/06/13 11:49:37;;;;;;;2.03;1.93;;;27.40;39.90;;;;;;4972235;28;20659;-64